KCZL

Tom B David Field Airport

Calhoun, Georgia, USA
METAR KCZL 230135Z AUTO 00000KT 10SM CLR 08/08 A3026 RMK AO2
Observed Flight Rules
Oct-23 @ 01:35 UTC (10 minutes ago) Visual Flight Rules
Visibility Clouds
10 miles
  • Clear skies
Temperatures Readings
Current 8°C / 46°F
Dewpoint 8°C / 46°F
Humidity 100%
Altimeter 30.26" Hg
Pressure 1025 hPa
Elevation 195
METAR KCZL 230135Z AUTO 00000KT 10SM CLR 08/08 A3026 RMK AO2
Observed Flight Rules
Oct-23 @ 01:35 UTC
(10 minutes ago)
VFR
Clouds
  • Clear skies
Temperature Dewpoint
8°C / 46°F 8°C / 46°F
Humidity Altimeter Pressure
100% 30.26" Hg 1025 hPa